sensor_id;sensor_type;location;lat;lon;timestamp;P1;durP1;ratioP1;P2;durP2;ratioP2
49235;SDS011;35067;48.134;8.378;2022-10-16T00:01:16;3.20;;;1.80;;
49235;SDS011;35067;48.134;8.378;2022-10-16T00:03:18;5.07;;;1.90;;
49235;SDS011;35067;48.134;8.378;2022-10-16T00:05:19;2.60;;;1.70;;
49235;SDS011;35067;48.134;8.378;2022-10-16T00:07:19;4.63;;;2.33;;
49235;SDS011;35067;48.134;8.378;2022-10-16T00:09:20;5.10;;;2.00;;
49235;SDS011;35067;48.134;8.378;2022-10-16T00:11:21;3.13;;;2.10;;
49235;SDS011;35067;48.134;8.378;2022-10-16T00:13:24;2.37;;;2.00;;
49235;SDS011;35067;48.134;8.378;2022-10-16T00:15:25;2.87;;;1.93;;
49235;SDS011;35067;48.134;8.378;2022-10-16T00:17:25;2.77;;;1.83;;
49235;SDS011;35067;48.134;8.378;2022-10-16T00:19:26;3.23;;;1.83;;
49235;SDS011;35067;48.134;8.378;2022-10-16T00:21:27;2.00;;;1.80;;
49235;SDS011;35067;48.134;8.378;2022-10-16T00:23:29;2.50;;;1.90;;
49235;SDS011;35067;48.134;8.378;2022-10-16T00:25:30;2.33;;;1.67;;
49235;SDS011;35067;48.134;8.378;2022-10-16T00:27:33;1.87;;;1.60;;
49235;SDS011;35067;48.134;8.378;2022-10-16T00:29:34;5.17;;;2.00;;
49235;SDS011;35067;48.134;8.378;2022-10-16T00:31:34;2.53;;;2.07;;
49235;SDS011;35067;48.134;8.378;2022-10-16T00:33:36;2.27;;;2.07;;
49235;SDS011;35067;48.134;8.378;2022-10-16T00:35:37;6.93;;;2.63;;
49235;SDS011;35067;48.134;8.378;2022-10-16T00:37:38;1.93;;;1.70;;
49235;SDS011;35067;48.134;8.378;2022-10-16T00:39:38;3.33;;;1.93;;
49235;SDS011;35067;48.134;8.378;2022-10-16T00:41:39;2.93;;;2.17;;
49235;SDS011;35067;48.134;8.378;2022-10-16T00:45:42;2.73;;;2.00;;
49235;SDS011;35067;48.134;8.378;2022-10-16T00:47:43;4.43;;;2.07;;
49235;SDS011;35067;48.134;8.378;2022-10-16T00:49:49;4.50;;;1.90;;
49235;SDS011;35067;48.134;8.378;2022-10-16T00:51:52;2.60;;;1.83;;
49235;SDS011;35067;48.134;8.378;2022-10-16T00:53:54;3.53;;;1.90;;
49235;SDS011;35067;48.134;8.378;2022-10-16T00:55:55;3.67;;;1.87;;
49235;SDS011;35067;48.134;8.378;2022-10-16T00:57:56;4.23;;;2.17;;
49235;SDS011;35067;48.134;8.378;2022-10-16T00:59:58;2.80;;;2.30;;
49235;SDS011;35067;48.134;8.378;2022-10-16T01:01:59;2.87;;;2.20;;
49235;SDS011;35067;48.134;8.378;2022-10-16T01:04:00;2.77;;;1.70;;
49235;SDS011;35067;48.134;8.378;2022-10-16T01:06:10;2.03;;;1.70;;
49235;SDS011;35067;48.134;8.378;2022-10-16T01:08:39;2.70;;;1.70;;
49235;SDS011;35067;48.134;8.378;2022-10-16T01:10:53;4.27;;;1.53;;
49235;SDS011;35067;48.134;8.378;2022-10-16T01:13:04;2.90;;;2.07;;
49235;SDS011;35067;48.134;8.378;2022-10-16T01:17:15;3.80;;;2.03;;
49235;SDS011;35067;48.134;8.378;2022-10-16T01:21:58;3.97;;;2.10;;
49235;SDS011;35067;48.134;8.378;2022-10-16T01:28:27;2.40;;;1.90;;
49235;SDS011;35067;48.134;8.378;2022-10-16T01:30:33;2.07;;;1.87;;
49235;SDS011;35067;48.134;8.378;2022-10-16T01:32:42;3.43;;;2.10;;
49235;SDS011;35067;48.134;8.378;2022-10-16T01:35:11;2.93;;;2.27;;
49235;SDS011;35067;48.134;8.378;2022-10-16T01:37:21;2.87;;;2.10;;
49235;SDS011;35067;48.134;8.378;2022-10-16T01:39:28;3.27;;;2.43;;
49235;SDS011;35067;48.134;8.378;2022-10-16T01:41:33;3.53;;;2.23;;
49235;SDS011;35067;48.134;8.378;2022-10-16T01:44:20;3.60;;;2.27;;
49235;SDS011;35067;48.134;8.378;2022-10-16T01:46:05;3.70;;;2.20;;
49235;SDS011;35067;48.134;8.378;2022-10-16T01:48:06;6.00;;;2.23;;
49235;SDS011;35067;48.134;8.378;2022-10-16T01:50:10;3.50;;;2.03;;
49235;SDS011;35067;48.134;8.378;2022-10-16T01:52:16;4.50;;;2.20;;
49235;SDS011;35067;48.134;8.378;2022-10-16T01:54:20;2.97;;;1.70;;
49235;SDS011;35067;48.134;8.378;2022-10-16T01:56:23;3.13;;;1.77;;
49235;SDS011;35067;48.134;8.378;2022-10-16T01:58:25;3.50;;;2.20;;
49235;SDS011;35067;48.134;8.378;2022-10-16T02:00:30;4.37;;;2.17;;
49235;SDS011;35067;48.134;8.378;2022-10-16T02:02:31;4.07;;;2.13;;
49235;SDS011;35067;48.134;8.378;2022-10-16T02:04:54;6.30;;;2.20;;
49235;SDS011;35067;48.134;8.378;2022-10-16T02:06:57;3.63;;;2.40;;
49235;SDS011;35067;48.134;8.378;2022-10-16T02:08:59;3.70;;;1.90;;
49235;SDS011;35067;48.134;8.378;2022-10-16T02:10:59;2.90;;;2.00;;
49235;SDS011;35067;48.134;8.378;2022-10-16T02:13:23;2.30;;;1.93;;
49235;SDS011;35067;48.134;8.378;2022-10-16T02:15:24;2.23;;;2.03;;
49235;SDS011;35067;48.134;8.378;2022-10-16T02:17:24;4.93;;;1.90;;
49235;SDS011;35067;48.134;8.378;2022-10-16T02:19:25;2.73;;;1.93;;
49235;SDS011;35067;48.134;8.378;2022-10-16T02:21:26;2.80;;;2.33;;
49235;SDS011;35067;48.134;8.378;2022-10-16T02:23:39;2.60;;;2.00;;
49235;SDS011;35067;48.134;8.378;2022-10-16T02:25:43;2.60;;;2.40;;
49235;SDS011;35067;48.134;8.378;2022-10-16T02:29:47;3.10;;;2.53;;
49235;SDS011;35067;48.134;8.378;2022-10-16T02:31:54;2.70;;;2.10;;
49235;SDS011;35067;48.134;8.378;2022-10-16T02:33:59;3.63;;;2.10;;
49235;SDS011;35067;48.134;8.378;2022-10-16T02:36:01;5.43;;;2.47;;
49235;SDS011;35067;48.134;8.378;2022-10-16T02:38:02;2.63;;;2.43;;
49235;SDS011;35067;48.134;8.378;2022-10-16T02:40:04;5.07;;;2.40;;
49235;SDS011;35067;48.134;8.378;2022-10-16T02:42:11;4.03;;;2.07;;
49235;SDS011;35067;48.134;8.378;2022-10-16T02:44:12;3.70;;;2.27;;
49235;SDS011;35067;48.134;8.378;2022-10-16T02:46:13;2.63;;;2.23;;
49235;SDS011;35067;48.134;8.378;2022-10-16T02:48:14;3.07;;;1.93;;
49235;SDS011;35067;48.134;8.378;2022-10-16T02:50:14;3.33;;;2.13;;
49235;SDS011;35067;48.134;8.378;2022-10-16T02:52:15;2.47;;;2.23;;
49235;SDS011;35067;48.134;8.378;2022-10-16T02:54:16;2.60;;;2.00;;
49235;SDS011;35067;48.134;8.378;2022-10-16T02:56:17;2.90;;;2.00;;
49235;SDS011;35067;48.134;8.378;2022-10-16T02:58:17;3.50;;;1.93;;
49235;SDS011;35067;48.134;8.378;2022-10-16T03:00:18;3.27;;;2.33;;
49235;SDS011;35067;48.134;8.378;2022-10-16T03:02:18;5.13;;;2.10;;
49235;SDS011;35067;48.134;8.378;2022-10-16T03:04:19;3.20;;;1.77;;
49235;SDS011;35067;48.134;8.378;2022-10-16T03:06:19;4.17;;;2.20;;
49235;SDS011;35067;48.134;8.378;2022-10-16T03:08:20;4.93;;;2.20;;
49235;SDS011;35067;48.134;8.378;2022-10-16T03:10:23;3.80;;;1.80;;
49235;SDS011;35067;48.134;8.378;2022-10-16T03:12:24;2.07;;;1.87;;
49235;SDS011;35067;48.134;8.378;2022-10-16T03:14:24;4.87;;;2.00;;
49235;SDS011;35067;48.134;8.378;2022-10-16T03:16:25;4.13;;;1.97;;
49235;SDS011;35067;48.134;8.378;2022-10-16T03:18:25;2.20;;;1.73;;
49235;SDS011;35067;48.134;8.378;2022-10-16T03:20:26;4.47;;;2.30;;
49235;SDS011;35067;48.134;8.378;2022-10-16T03:22:27;3.30;;;1.80;;
49235;SDS011;35067;48.134;8.378;2022-10-16T03:24:27;2.97;;;2.43;;
49235;SDS011;35067;48.134;8.378;2022-10-16T03:26:28;2.50;;;1.97;;
49235;SDS011;35067;48.134;8.378;2022-10-16T03:28:28;2.63;;;2.20;;
49235;SDS011;35067;48.134;8.378;2022-10-16T03:30:29;3.63;;;2.17;;
49235;SDS011;35067;48.134;8.378;2022-10-16T03:32:29;3.77;;;2.17;;
49235;SDS011;35067;48.134;8.378;2022-10-16T03:34:30;6.20;;;2.50;;
49235;SDS011;35067;48.134;8.378;2022-10-16T03:36:30;3.03;;;2.40;;
49235;SDS011;35067;48.134;8.378;2022-10-16T03:38:31;2.30;;;2.10;;
49235;SDS011;35067;48.134;8.378;2022-10-16T03:40:31;3.83;;;2.30;;
49235;SDS011;35067;48.134;8.378;2022-10-16T03:42:32;2.87;;;2.20;;
49235;SDS011;35067;48.134;8.378;2022-10-16T03:44:33;3.97;;;2.80;;
49235;SDS011;35067;48.134;8.378;2022-10-16T03:46:33;3.63;;;2.57;;
49235;SDS011;35067;48.134;8.378;2022-10-16T03:48:34;6.27;;;2.60;;
49235;SDS011;35067;48.134;8.378;2022-10-16T03:50:34;4.77;;;2.13;;
49235;SDS011;35067;48.134;8.378;2022-10-16T03:52:35;4.33;;;2.60;;
49235;SDS011;35067;48.134;8.378;2022-10-16T03:54:35;2.67;;;2.00;;
49235;SDS011;35067;48.134;8.378;2022-10-16T03:56:36;4.07;;;2.30;;
49235;SDS011;35067;48.134;8.378;2022-10-16T03:58:36;3.27;;;2.37;;
49235;SDS011;35067;48.134;8.378;2022-10-16T04:00:41;7.07;;;2.53;;
49235;SDS011;35067;48.134;8.378;2022-10-16T04:02:42;3.97;;;2.57;;
49235;SDS011;35067;48.134;8.378;2022-10-16T04:04:42;3.07;;;2.40;;
49235;SDS011;35067;48.134;8.378;2022-10-16T04:06:43;2.37;;;2.10;;
49235;SDS011;35067;48.134;8.378;2022-10-16T04:08:44;4.00;;;2.20;;
49235;SDS011;35067;48.134;8.378;2022-10-16T04:10:45;2.53;;;2.27;;
49235;SDS011;35067;48.134;8.378;2022-10-16T04:12:45;4.77;;;2.20;;
49235;SDS011;35067;48.134;8.378;2022-10-16T04:14:46;2.77;;;2.03;;
49235;SDS011;35067;48.134;8.378;2022-10-16T04:16:47;5.60;;;2.53;;
49235;SDS011;35067;48.134;8.378;2022-10-16T04:18:47;4.30;;;2.23;;
49235;SDS011;35067;48.134;8.378;2022-10-16T04:20:48;3.90;;;2.37;;
49235;SDS011;35067;48.134;8.378;2022-10-16T04:22:48;3.77;;;1.97;;
49235;SDS011;35067;48.134;8.378;2022-10-16T04:24:49;3.10;;;2.40;;
49235;SDS011;35067;48.134;8.378;2022-10-16T04:26:49;2.90;;;2.07;;
49235;SDS011;35067;48.134;8.378;2022-10-16T04:28:50;2.30;;;2.00;;
49235;SDS011;35067;48.134;8.378;2022-10-16T04:30:50;2.00;;;1.80;;
49235;SDS011;35067;48.134;8.378;2022-10-16T04:32:51;4.70;;;2.87;;
49235;SDS011;35067;48.134;8.378;2022-10-16T04:34:52;4.37;;;2.57;;
49235;SDS011;35067;48.134;8.378;2022-10-16T04:36:53;4.37;;;2.13;;
49235;SDS011;35067;48.134;8.378;2022-10-16T04:38:54;3.13;;;2.10;;
49235;SDS011;35067;48.134;8.378;2022-10-16T04:40:54;3.87;;;2.37;;
49235;SDS011;35067;48.134;8.378;2022-10-16T04:42:55;3.77;;;2.00;;
49235;SDS011;35067;48.134;8.378;2022-10-16T04:44:55;6.30;;;2.03;;
49235;SDS011;35067;48.134;8.378;2022-10-16T04:46:56;3.73;;;2.10;;
49235;SDS011;35067;48.134;8.378;2022-10-16T04:48:56;2.43;;;1.90;;
49235;SDS011;35067;48.134;8.378;2022-10-16T04:50:57;2.50;;;1.90;;
49235;SDS011;35067;48.134;8.378;2022-10-16T04:52:58;3.77;;;1.90;;
49235;SDS011;35067;48.134;8.378;2022-10-16T04:54:59;2.80;;;2.20;;
49235;SDS011;35067;48.134;8.378;2022-10-16T04:57:02;3.17;;;2.00;;
49235;SDS011;35067;48.134;8.378;2022-10-16T04:59:04;3.40;;;2.17;;
49235;SDS011;35067;48.134;8.378;2022-10-16T05:01:05;3.83;;;2.60;;
49235;SDS011;35067;48.134;8.378;2022-10-16T05:03:05;4.20;;;2.83;;
49235;SDS011;35067;48.134;8.378;2022-10-16T05:05:08;6.37;;;2.70;;
49235;SDS011;35067;48.134;8.378;2022-10-16T05:07:09;2.70;;;2.23;;
49235;SDS011;35067;48.134;8.378;2022-10-16T05:09:09;3.20;;;2.57;;
49235;SDS011;35067;48.134;8.378;2022-10-16T05:11:10;2.70;;;2.30;;
49235;SDS011;35067;48.134;8.378;2022-10-16T05:13:11;4.07;;;2.13;;
49235;SDS011;35067;48.134;8.378;2022-10-16T05:15:12;2.50;;;1.93;;
49235;SDS011;35067;48.134;8.378;2022-10-16T05:17:12;2.70;;;2.13;;
49235;SDS011;35067;48.134;8.378;2022-10-16T05:19:13;3.70;;;2.20;;
49235;SDS011;35067;48.134;8.378;2022-10-16T05:21:14;3.13;;;2.00;;
49235;SDS011;35067;48.134;8.378;2022-10-16T05:23:14;2.57;;;2.17;;
49235;SDS011;35067;48.134;8.378;2022-10-16T05:25:15;5.60;;;2.30;;
49235;SDS011;35067;48.134;8.378;2022-10-16T05:27:16;2.67;;;2.47;;
49235;SDS011;35067;48.134;8.378;2022-10-16T05:29:19;3.03;;;1.80;;
49235;SDS011;35067;48.134;8.378;2022-10-16T05:31:20;3.03;;;1.77;;
49235;SDS011;35067;48.134;8.378;2022-10-16T05:33:21;3.53;;;1.97;;
49235;SDS011;35067;48.134;8.378;2022-10-16T05:35:22;2.07;;;1.80;;
49235;SDS011;35067;48.134;8.378;2022-10-16T05:37:23;9.83;;;4.87;;
49235;SDS011;35067;48.134;8.378;2022-10-16T05:39:23;4.97;;;2.97;;
49235;SDS011;35067;48.134;8.378;2022-10-16T05:41:24;6.03;;;4.00;;
49235;SDS011;35067;48.134;8.378;2022-10-16T05:43:27;7.57;;;4.60;;
49235;SDS011;35067;48.134;8.378;2022-10-16T05:45:28;8.33;;;6.10;;
49235;SDS011;35067;48.134;8.378;2022-10-16T05:47:28;7.70;;;4.77;;
49235;SDS011;35067;48.134;8.378;2022-10-16T05:49:29;6.33;;;4.60;;
49235;SDS011;35067;48.134;8.378;2022-10-16T05:51:29;7.77;;;4.43;;
49235;SDS011;35067;48.134;8.378;2022-10-16T05:53:31;7.07;;;4.03;;
49235;SDS011;35067;48.134;8.378;2022-10-16T05:55:33;5.00;;;3.40;;
49235;SDS011;35067;48.134;8.378;2022-10-16T05:57:34;3.27;;;2.70;;
49235;SDS011;35067;48.134;8.378;2022-10-16T05:59:34;3.63;;;2.60;;
49235;SDS011;35067;48.134;8.378;2022-10-16T06:01:35;3.43;;;2.60;;
49235;SDS011;35067;48.134;8.378;2022-10-16T06:03:36;5.33;;;2.60;;
49235;SDS011;35067;48.134;8.378;2022-10-16T06:05:37;2.97;;;2.50;;
49235;SDS011;35067;48.134;8.378;2022-10-16T06:07:37;4.03;;;2.47;;
49235;SDS011;35067;48.134;8.378;2022-10-16T06:09:38;3.80;;;2.20;;
49235;SDS011;35067;48.134;8.378;2022-10-16T06:11:38;3.57;;;2.30;;
49235;SDS011;35067;48.134;8.378;2022-10-16T06:13:39;4.30;;;2.43;;
49235;SDS011;35067;48.134;8.378;2022-10-16T06:15:42;3.10;;;2.43;;
49235;SDS011;35067;48.134;8.378;2022-10-16T06:17:42;3.97;;;2.10;;
49235;SDS011;35067;48.134;8.378;2022-10-16T06:19:43;2.47;;;1.97;;
49235;SDS011;35067;48.134;8.378;2022-10-16T06:21:44;3.73;;;2.23;;
49235;SDS011;35067;48.134;8.378;2022-10-16T06:23:45;2.30;;;2.03;;
49235;SDS011;35067;48.134;8.378;2022-10-16T06:25:46;3.70;;;2.40;;
49235;SDS011;35067;48.134;8.378;2022-10-16T06:27:47;4.87;;;2.20;;
49235;SDS011;35067;48.134;8.378;2022-10-16T06:29:47;4.43;;;2.23;;
49235;SDS011;35067;48.134;8.378;2022-10-16T06:31:48;3.37;;;1.70;;
49235;SDS011;35067;48.134;8.378;2022-10-16T06:33:51;1.67;;;1.50;;
49235;SDS011;35067;48.134;8.378;2022-10-16T06:35:51;2.10;;;1.30;;
49235;SDS011;35067;48.134;8.378;2022-10-16T06:37:52;3.70;;;1.60;;
49235;SDS011;35067;48.134;8.378;2022-10-16T06:39:53;3.33;;;1.63;;
49235;SDS011;35067;48.134;8.378;2022-10-16T06:41:54;3.00;;;1.70;;
49235;SDS011;35067;48.134;8.378;2022-10-16T06:43:54;6.33;;;1.60;;
49235;SDS011;35067;48.134;8.378;2022-10-16T06:45:55;2.30;;;1.97;;
49235;SDS011;35067;48.134;8.378;2022-10-16T06:47:56;3.20;;;2.80;;
49235;SDS011;35067;48.134;8.378;2022-10-16T06:49:57;3.50;;;2.80;;
49235;SDS011;35067;48.134;8.378;2022-10-16T06:51:58;2.90;;;1.80;;
49235;SDS011;35067;48.134;8.378;2022-10-16T06:53:58;3.13;;;2.30;;
49235;SDS011;35067;48.134;8.378;2022-10-16T06:56:09;3.00;;;2.30;;
49235;SDS011;35067;48.134;8.378;2022-10-16T06:58:14;1.93;;;1.50;;
49235;SDS011;35067;48.134;8.378;2022-10-16T07:00:14;2.53;;;1.80;;
49235;SDS011;35067;48.134;8.378;2022-10-16T07:02:15;1.60;;;1.40;;
49235;SDS011;35067;48.134;8.378;2022-10-16T07:04:15;1.40;;;1.30;;
49235;SDS011;35067;48.134;8.378;2022-10-16T07:06:17;2.20;;;1.60;;
49235;SDS011;35067;48.134;8.378;2022-10-16T07:08:19;3.60;;;1.57;;
49235;SDS011;35067;48.134;8.378;2022-10-16T07:10:19;2.33;;;1.40;;
49235;SDS011;35067;48.134;8.378;2022-10-16T07:12:23;3.77;;;1.60;;
49235;SDS011;35067;48.134;8.378;2022-10-16T07:14:24;1.30;;;1.10;;
49235;SDS011;35067;48.134;8.378;2022-10-16T07:16:26;2.37;;;1.20;;
49235;SDS011;35067;48.134;8.378;2022-10-16T07:18:27;1.50;;;1.20;;
49235;SDS011;35067;48.134;8.378;2022-10-16T07:20:28;3.60;;;1.17;;
49235;SDS011;35067;48.134;8.378;2022-10-16T07:22:29;1.40;;;1.30;;
49235;SDS011;35067;48.134;8.378;2022-10-16T07:24:29;1.80;;;1.30;;
49235;SDS011;35067;48.134;8.378;2022-10-16T07:26:31;1.20;;;1.10;;
49235;SDS011;35067;48.134;8.378;2022-10-16T07:28:34;3.53;;;1.30;;
49235;SDS011;35067;48.134;8.378;2022-10-16T07:30:35;2.00;;;1.20;;
49235;SDS011;35067;48.134;8.378;2022-10-16T07:32:37;2.43;;;1.00;;
49235;SDS011;35067;48.134;8.378;2022-10-16T07:34:37;2.50;;;1.20;;
49235;SDS011;35067;48.134;8.378;2022-10-16T07:36:38;1.70;;;1.00;;
49235;SDS011;35067;48.134;8.378;2022-10-16T07:38:39;2.03;;;1.00;;
49235;SDS011;35067;48.134;8.378;2022-10-16T07:40:40;1.33;;;1.10;;
49235;SDS011;35067;48.134;8.378;2022-10-16T07:42:40;2.90;;;0.93;;
49235;SDS011;35067;48.134;8.378;2022-10-16T07:44:41;1.33;;;1.00;;
49235;SDS011;35067;48.134;8.378;2022-10-16T07:46:41;1.73;;;1.30;;
49235;SDS011;35067;48.134;8.378;2022-10-16T07:48:42;1.20;;;1.10;;
49235;SDS011;35067;48.134;8.378;2022-10-16T07:50:48;1.60;;;1.40;;
49235;SDS011;35067;48.134;8.378;2022-10-16T07:52:48;3.00;;;1.30;;
49235;SDS011;35067;48.134;8.378;2022-10-16T07:54:49;3.83;;;1.37;;
49235;SDS011;35067;48.134;8.378;2022-10-16T07:56:50;2.03;;;1.83;;
49235;SDS011;35067;48.134;8.378;2022-10-16T07:58:51;1.57;;;1.20;;
49235;SDS011;35067;48.134;8.378;2022-10-16T08:00:52;2.63;;;1.80;;
49235;SDS011;35067;48.134;8.378;2022-10-16T08:02:52;3.10;;;2.00;;
49235;SDS011;35067;48.134;8.378;2022-10-16T08:04:53;1.90;;;1.60;;
49235;SDS011;35067;48.134;8.378;2022-10-16T08:06:54;1.30;;;1.20;;
49235;SDS011;35067;48.134;8.378;2022-10-16T08:08:55;2.77;;;1.33;;
49235;SDS011;35067;48.134;8.378;2022-10-16T08:10:56;2.60;;;1.43;;
49235;SDS011;35067;48.134;8.378;2022-10-16T08:12:57;2.10;;;1.23;;
49235;SDS011;35067;48.134;8.378;2022-10-16T08:14:58;2.73;;;1.13;;
49235;SDS011;35067;48.134;8.378;2022-10-16T08:16:59;1.93;;;1.27;;
49235;SDS011;35067;48.134;8.378;2022-10-16T08:19:02;1.30;;;1.20;;
49235;SDS011;35067;48.134;8.378;2022-10-16T08:21:03;1.53;;;1.43;;
49235;SDS011;35067;48.134;8.378;2022-10-16T08:23:05;2.90;;;1.17;;
49235;SDS011;35067;48.134;8.378;2022-10-16T08:25:06;1.70;;;1.30;;
49235;SDS011;35067;48.134;8.378;2022-10-16T08:27:07;1.67;;;1.30;;
49235;SDS011;35067;48.134;8.378;2022-10-16T08:29:08;1.70;;;1.60;;
49235;SDS011;35067;48.134;8.378;2022-10-16T08:31:10;3.50;;;2.40;;
49235;SDS011;35067;48.134;8.378;2022-10-16T08:33:14;2.83;;;2.27;;
49235;SDS011;35067;48.134;8.378;2022-10-16T08:35:15;7.47;;;4.43;;
49235;SDS011;35067;48.134;8.378;2022-10-16T08:37:16;2.40;;;1.73;;
49235;SDS011;35067;48.134;8.378;2022-10-16T08:39:17;2.43;;;1.47;;
49235;SDS011;35067;48.134;8.378;2022-10-16T08:48:55;1.07;;;1.00;;
49235;SDS011;35067;48.134;8.378;2022-10-16T08:51:00;2.07;;;1.20;;
49235;SDS011;35067;48.134;8.378;2022-10-16T08:53:03;1.20;;;1.10;;
49235;SDS011;35067;48.134;8.378;2022-10-16T08:55:06;1.20;;;1.10;;
49235;SDS011;35067;48.134;8.378;2022-10-16T08:57:20;1.00;;;0.90;;
49235;SDS011;35067;48.134;8.378;2022-10-16T08:59:22;1.80;;;1.50;;
49235;SDS011;35067;48.134;8.378;2022-10-16T09:01:23;2.30;;;0.97;;
49235;SDS011;35067;48.134;8.378;2022-10-16T09:03:51;1.60;;;1.00;;
49235;SDS011;35067;48.134;8.378;2022-10-16T09:08:48;2.27;;;1.10;;
49235;SDS011;35067;48.134;8.378;2022-10-16T09:11:08;1.10;;;0.93;;
49235;SDS011;35067;48.134;8.378;2022-10-16T09:16:04;2.80;;;1.80;;
49235;SDS011;35067;48.134;8.378;2022-10-16T09:18:33;1.33;;;0.97;;
49235;SDS011;35067;48.134;8.378;2022-10-16T09:20:48;1.27;;;1.07;;
49235;SDS011;35067;48.134;8.378;2022-10-16T09:23:00;1.70;;;1.30;;
49235;SDS011;35067;48.134;8.378;2022-10-16T09:25:18;3.00;;;1.13;;
49235;SDS011;35067;48.134;8.378;2022-10-16T09:27:21;2.90;;;1.40;;
49235;SDS011;35067;48.134;8.378;2022-10-16T09:29:23;2.43;;;1.50;;
49235;SDS011;35067;48.134;8.378;2022-10-16T09:31:24;1.43;;;1.13;;
49235;SDS011;35067;48.134;8.378;2022-10-16T09:33:33;2.20;;;1.67;;
49235;SDS011;35067;48.134;8.378;2022-10-16T09:35:46;3.90;;;3.00;;
49235;SDS011;35067;48.134;8.378;2022-10-16T09:37:54;2.13;;;1.53;;
49235;SDS011;35067;48.134;8.378;2022-10-16T09:39:55;2.30;;;1.30;;
49235;SDS011;35067;48.134;8.378;2022-10-16T09:41:55;1.67;;;1.17;;
49235;SDS011;35067;48.134;8.378;2022-10-16T09:43:57;1.37;;;1.07;;
49235;SDS011;35067;48.134;8.378;2022-10-16T09:46:04;2.67;;;1.93;;
49235;SDS011;35067;48.134;8.378;2022-10-16T09:48:11;6.73;;;5.07;;
49235;SDS011;35067;48.134;8.378;2022-10-16T09:50:26;3.10;;;2.60;;
49235;SDS011;35067;48.134;8.378;2022-10-16T09:52:29;3.90;;;1.50;;
49235;SDS011;35067;48.134;8.378;2022-10-16T09:54:32;2.67;;;1.40;;
49235;SDS011;35067;48.134;8.378;2022-10-16T09:56:34;3.60;;;1.40;;
49235;SDS011;35067;48.134;8.378;2022-10-16T09:58:36;3.33;;;1.50;;
49235;SDS011;35067;48.134;8.378;2022-10-16T10:00:37;2.00;;;1.80;;
49235;SDS011;35067;48.134;8.378;2022-10-16T10:02:42;2.13;;;1.87;;
49235;SDS011;35067;48.134;8.378;2022-10-16T10:04:48;3.23;;;1.77;;
49235;SDS011;35067;48.134;8.378;2022-10-16T10:06:56;3.10;;;1.70;;
49235;SDS011;35067;48.134;8.378;2022-10-16T10:08:59;3.13;;;1.47;;
49235;SDS011;35067;48.134;8.378;2022-10-16T10:11:39;2.60;;;1.53;;
49235;SDS011;35067;48.134;8.378;2022-10-16T10:13:52;2.60;;;1.60;;
49235;SDS011;35067;48.134;8.378;2022-10-16T10:16:36;1.87;;;1.40;;
49235;SDS011;35067;48.134;8.378;2022-10-16T10:18:36;1.80;;;1.70;;
49235;SDS011;35067;48.134;8.378;2022-10-16T10:20:37;3.73;;;1.43;;
49235;SDS011;35067;48.134;8.378;2022-10-16T10:22:40;2.40;;;1.37;;
49235;SDS011;35067;48.134;8.378;2022-10-16T10:24:54;2.33;;;1.67;;
49235;SDS011;35067;48.134;8.378;2022-10-16T10:26:59;1.83;;;1.60;;
49235;SDS011;35067;48.134;8.378;2022-10-16T10:33:55;3.50;;;1.27;;
49235;SDS011;35067;48.134;8.378;2022-10-16T10:36:21;3.57;;;1.30;;
49235;SDS011;35067;48.134;8.378;2022-10-16T10:38:50;2.07;;;1.50;;
49235;SDS011;35067;48.134;8.378;2022-10-16T10:43:45;1.73;;;1.40;;
49235;SDS011;35067;48.134;8.378;2022-10-16T10:46:46;1.50;;;1.40;;
49235;SDS011;35067;48.134;8.378;2022-10-16T10:49:34;1.60;;;1.30;;
49235;SDS011;35067;48.134;8.378;2022-10-16T10:52:26;2.73;;;1.33;;
49235;SDS011;35067;48.134;8.378;2022-10-16T10:57:27;2.53;;;1.50;;
49235;SDS011;35067;48.134;8.378;2022-10-16T10:59:37;1.40;;;1.30;;
49235;SDS011;35067;48.134;8.378;2022-10-16T11:02:04;1.20;;;1.10;;
49235;SDS011;35067;48.134;8.378;2022-10-16T11:06:36;2.13;;;1.47;;
49235;SDS011;35067;48.134;8.378;2022-10-16T11:08:48;2.20;;;1.20;;
49235;SDS011;35067;48.134;8.378;2022-10-16T11:13:23;1.40;;;1.07;;
49235;SDS011;35067;48.134;8.378;2022-10-16T11:15:54;3.00;;;1.27;;
49235;SDS011;35067;48.134;8.378;2022-10-16T11:18:05;1.37;;;1.27;;
49235;SDS011;35067;48.134;8.378;2022-10-16T11:20:14;1.50;;;1.40;;
49235;SDS011;35067;48.134;8.378;2022-10-16T11:22:24;2.47;;;1.92;;
49235;SDS011;35067;48.134;8.378;2022-10-16T11:24:34;1.60;;;1.30;;
49235;SDS011;35067;48.134;8.378;2022-10-16T11:26:44;1.60;;;1.50;;
49235;SDS011;35067;48.134;8.378;2022-10-16T11:28:51;4.00;;;1.50;;
49235;SDS011;35067;48.134;8.378;2022-10-16T11:31:00;3.70;;;1.40;;
49235;SDS011;35067;48.134;8.378;2022-10-16T11:33:21;3.28;;;1.30;;
49235;SDS011;35067;48.134;8.378;2022-10-16T11:35:57;1.55;;;1.30;;
49235;SDS011;35067;48.134;8.378;2022-10-16T11:38:30;3.47;;;1.67;;
49235;SDS011;35067;48.134;8.378;2022-10-16T11:40:43;1.38;;;1.27;;
49235;SDS011;35067;48.134;8.378;2022-10-16T11:42:51;3.20;;;1.80;;
49235;SDS011;35067;48.134;8.378;2022-10-16T11:45:13;1.88;;;1.20;;
49235;SDS011;35067;48.134;8.378;2022-10-16T11:48:02;9.48;;;2.65;;
49235;SDS011;35067;48.134;8.378;2022-10-16T11:50:35;1.80;;;1.15;;
49235;SDS011;35067;48.134;8.378;2022-10-16T11:53:03;2.70;;;1.40;;
49235;SDS011;35067;48.134;8.378;2022-10-16T11:55:15;1.30;;;1.20;;
49235;SDS011;35067;48.134;8.378;2022-10-16T11:57:24;1.50;;;1.40;;
49235;SDS011;35067;48.134;8.378;2022-10-16T11:59:35;3.13;;;1.65;;
49235;SDS011;35067;48.134;8.378;2022-10-16T12:04:19;2.90;;;1.50;;
49235;SDS011;35067;48.134;8.378;2022-10-16T12:06:35;2.08;;;1.33;;
49235;SDS011;35067;48.134;8.378;2022-10-16T12:09:04;3.00;;;1.35;;
49235;SDS011;35067;48.134;8.378;2022-10-16T12:11:07;1.45;;;1.35;;
49235;SDS011;35067;48.134;8.378;2022-10-16T12:13:36;2.15;;;1.40;;
49235;SDS011;35067;48.134;8.378;2022-10-16T12:15:39;1.50;;;1.40;;
49235;SDS011;35067;48.134;8.378;2022-10-16T12:17:40;1.60;;;1.50;;
49235;SDS011;35067;48.134;8.378;2022-10-16T12:19:40;2.97;;;1.58;;
49235;SDS011;35067;48.134;8.378;2022-10-16T12:21:41;1.73;;;1.50;;
49235;SDS011;35067;48.134;8.378;2022-10-16T12:23:48;1.67;;;1.30;;
49235;SDS011;35067;48.134;8.378;2022-10-16T12:25:55;4.72;;;1.38;;
49235;SDS011;35067;48.134;8.378;2022-10-16T12:27:59;1.70;;;1.40;;
49235;SDS011;35067;48.134;8.378;2022-10-16T12:30:19;1.73;;;1.60;;
49235;SDS011;35067;48.134;8.378;2022-10-16T12:32:36;3.75;;;1.65;;
49235;SDS011;35067;48.134;8.378;2022-10-16T12:34:41;2.72;;;1.50;;
49235;SDS011;35067;48.134;8.378;2022-10-16T12:36:43;3.55;;;1.40;;
49235;SDS011;35067;48.134;8.378;2022-10-16T12:38:48;2.72;;;1.58;;
49235;SDS011;35067;48.134;8.378;2022-10-16T12:40:55;1.98;;;1.77;;
49235;SDS011;35067;48.134;8.378;2022-10-16T12:43:12;2.13;;;1.90;;
49235;SDS011;35067;48.134;8.378;2022-10-16T12:45:29;1.50;;;1.40;;
49235;SDS011;35067;48.134;8.378;2022-10-16T12:49:37;2.08;;;1.38;;
49235;SDS011;35067;48.134;8.378;2022-10-16T12:51:49;2.90;;;1.50;;
49235;SDS011;35067;48.134;8.378;2022-10-16T12:54:00;4.38;;;1.75;;
49235;SDS011;35067;48.134;8.378;2022-10-16T12:56:17;2.70;;;1.50;;
49235;SDS011;35067;48.134;8.378;2022-10-16T13:00:55;3.00;;;2.03;;
49235;SDS011;35067;48.134;8.378;2022-10-16T13:08:24;1.63;;;1.52;;
49235;SDS011;35067;48.134;8.378;2022-10-16T13:11:07;1.45;;;1.35;;
49235;SDS011;35067;48.134;8.378;2022-10-16T13:13:54;1.67;;;1.40;;
49235;SDS011;35067;48.134;8.378;2022-10-16T13:28:31;2.33;;;1.52;;
49235;SDS011;35067;48.134;8.378;2022-10-16T13:30:37;2.75;;;1.40;;
49235;SDS011;35067;48.134;8.378;2022-10-16T13:32:44;1.42;;;1.33;;
49235;SDS011;35067;48.134;8.378;2022-10-16T13:34:50;2.53;;;1.70;;
49235;SDS011;35067;48.134;8.378;2022-10-16T13:36:51;4.40;;;1.63;;
49235;SDS011;35067;48.134;8.378;2022-10-16T13:41:21;1.70;;;1.60;;
49235;SDS011;35067;48.134;8.378;2022-10-16T13:43:25;1.73;;;1.40;;
49235;SDS011;35067;48.134;8.378;2022-10-16T13:45:34;4.15;;;1.40;;